createdAt,value
2018-11-13T00:00:17.086Z,6.59
2018-11-13T00:01:17.168Z,6.58
2018-11-13T00:02:16.474Z,6.69
2018-11-13T00:03:16.784Z,6.81
2018-11-13T00:04:17.077Z,6.82
2018-11-13T00:05:16.367Z,6.75
2018-11-13T00:06:16.711Z,6.82
2018-11-13T00:07:17.018Z,6.92
2018-11-13T00:08:16.328Z,6.98
2018-11-13T00:09:16.636Z,6.92
2018-11-13T00:10:16.956Z,6.91
2018-11-13T00:11:16.994Z,6.91
2018-11-13T00:12:16.414Z,6.94
2018-11-13T00:13:16.728Z,7.00
2018-11-13T00:14:17.045Z,6.96
2018-11-13T00:15:16.363Z,7.02
2018-11-13T00:16:16.674Z,7.06
2018-11-13T00:17:16.972Z,7.05
2018-11-13T00:18:16.314Z,7.05
2018-11-13T00:19:16.624Z,7.06
2018-11-13T00:20:16.935Z,7.06
2018-11-13T00:21:16.984Z,7.06
2018-11-13T00:22:16.299Z,7.05
2018-11-13T00:23:16.602Z,7.05
2018-11-13T00:24:16.922Z,7.07
2018-11-13T00:25:16.270Z,7.07
2018-11-13T00:26:16.572Z,7.13
2018-11-13T00:27:16.941Z,7.12
2018-11-13T00:28:16.294Z,7.15
2018-11-13T00:29:16.640Z,7.13
2018-11-13T00:30:17.005Z,7.13
2018-11-13T00:31:17.061Z,7.20
2018-11-13T00:32:16.356Z,7.20
2018-11-13T00:33:16.663Z,7.19
2018-11-13T00:34:16.976Z,7.23
2018-11-13T00:35:16.292Z,7.24
2018-11-13T00:36:16.628Z,7.20
2018-11-13T00:37:16.938Z,7.19
2018-11-13T00:38:16.247Z,7.22
2018-11-13T00:39:16.655Z,7.24
2018-11-13T00:40:17.663Z,7.24
2018-11-13T00:41:17.186Z,7.22
2018-11-13T00:42:16.480Z,7.24
2018-11-13T00:43:16.770Z,7.27
2018-11-13T00:44:17.084Z,7.27
2018-11-13T00:45:16.460Z,7.26
2018-11-13T00:46:16.928Z,7.24
2018-11-13T00:47:16.241Z,7.19
2018-11-13T00:48:16.596Z,7.16
2018-11-13T00:49:16.966Z,7.17
2018-11-13T00:50:16.331Z,7.20
2018-11-13T00:51:16.373Z,7.19
2018-11-13T00:52:16.669Z,7.22
2018-11-13T00:53:16.996Z,7.17
2018-11-13T00:54:16.338Z,7.22
2018-11-13T00:55:16.647Z,7.23
2018-11-13T00:56:16.945Z,7.19
2018-11-13T00:57:16.250Z,7.19
2018-11-13T00:58:16.548Z,7.20
2018-11-13T00:59:16.863Z,7.20
2018-11-13T01:00:16.302Z,7.22
2018-11-13T01:01:16.356Z,7.20
2018-11-13T01:02:16.709Z,7.16
2018-11-13T01:03:17.055Z,7.17
2018-11-13T01:04:16.360Z,7.17
2018-11-13T01:05:16.748Z,7.15
2018-11-13T01:06:16.285Z,7.17
2018-11-13T01:07:16.593Z,7.17
2018-11-13T01:08:16.922Z,7.22
2018-11-13T01:09:17.219Z,7.23
2018-11-13T01:10:16.552Z,7.23
2018-11-13T01:11:16.587Z,7.23
2018-11-13T01:12:16.912Z,7.29
2018-11-13T01:13:17.210Z,7.23
2018-11-13T01:14:16.507Z,7.24
2018-11-13T01:15:16.826Z,7.26
2018-11-13T01:16:17.150Z,7.27
2018-11-13T01:17:16.489Z,7.29
2018-11-13T01:18:16.831Z,7.31
2018-11-13T01:19:17.139Z,7.26
2018-11-13T01:20:16.477Z,7.31
2018-11-13T01:21:16.523Z,7.34
2018-11-13T01:22:16.844Z,7.35
2018-11-13T01:23:17.142Z,7.34
2018-11-13T01:24:16.650Z,7.40
2018-11-13T01:25:16.491Z,7.34
2018-11-13T01:26:16.807Z,7.38
2018-11-13T01:27:17.368Z,7.35
2018-11-13T01:28:16.683Z,7.38
2018-11-13T01:29:16.989Z,7.41
2018-11-13T01:30:16.328Z,7.44
2018-11-13T01:31:16.355Z,7.50
2018-11-13T01:32:16.659Z,7.53
2018-11-13T01:33:16.983Z,7.53
2018-11-13T01:34:16.303Z,7.54
2018-11-13T01:35:16.956Z,7.50
2018-11-13T01:36:16.254Z,7.50
2018-11-13T01:37:16.574Z,7.53
2018-11-13T01:38:16.901Z,7.54
2018-11-13T01:39:17.197Z,7.58
2018-11-13T01:40:16.572Z,7.61
2018-11-13T01:41:16.582Z,7.64
2018-11-13T01:42:16.928Z,7.65
2018-11-13T01:43:16.266Z,7.65
2018-11-13T01:44:16.584Z,7.61
2018-11-13T01:45:16.916Z,7.64
2018-11-13T01:46:16.266Z,7.81
2018-11-13T01:47:16.585Z,7.86
2018-11-13T01:48:16.861Z,7.99
2018-11-13T01:49:17.170Z,8.06
2018-11-13T01:50:16.505Z,8.06
2018-11-13T01:51:16.491Z,8.02
2018-11-13T01:52:16.797Z,8.00
2018-11-13T01:53:17.135Z,8.03
2018-11-13T01:54:16.440Z,8.03
2018-11-13T01:55:16.795Z,8.10
2018-11-13T01:56:17.129Z,8.10
2018-11-13T01:57:16.422Z,8.09
2018-11-13T01:58:16.749Z,8.14
2018-11-13T01:59:17.083Z,8.24
2018-11-13T02:00:16.439Z,8.27
2018-11-13T02:01:16.489Z,8.30
2018-11-13T02:02:16.838Z,8.29
2018-11-13T02:03:17.647Z,8.24
2018-11-13T02:04:16.972Z,8.20
2018-11-13T02:05:16.637Z,8.24
2018-11-13T02:06:16.964Z,8.26
2018-11-13T02:07:16.276Z,8.24
2018-11-13T02:08:16.612Z,8.29
2018-11-13T02:09:16.913Z,8.27
2018-11-13T02:10:17.225Z,8.31
2018-11-13T02:11:16.270Z,8.29
2018-11-13T02:12:16.590Z,8.27
2018-11-13T02:13:16.873Z,8.27
2018-11-13T02:14:17.203Z,8.29
2018-11-13T02:15:16.531Z,8.30
2018-11-13T02:16:16.856Z,8.31
2018-11-13T02:17:17.147Z,8.33
2018-11-13T02:18:16.459Z,8.31
2018-11-13T02:19:16.775Z,8.40
2018-11-13T02:20:17.116Z,8.39
2018-11-13T02:21:17.161Z,8.36
2018-11-13T02:22:16.446Z,8.37
2018-11-13T02:23:16.758Z,8.37
2018-11-13T02:24:17.068Z,8.39
2018-11-13T02:25:16.369Z,8.39
2018-11-13T02:26:16.761Z,8.39
2018-11-13T02:27:17.052Z,8.37
2018-11-13T02:28:16.370Z,8.40
2018-11-13T02:29:16.658Z,8.39
2018-11-13T02:30:16.962Z,8.34
2018-11-13T02:31:16.986Z,8.31
2018-11-13T02:32:16.262Z,8.34
2018-11-13T02:33:16.537Z,8.31
2018-11-13T02:34:16.810Z,8.27
2018-11-13T02:35:17.222Z,8.23
2018-11-13T02:36:16.699Z,8.20
2018-11-13T02:37:16.975Z,8.20
2018-11-13T02:38:16.272Z,8.16
2018-11-13T02:39:16.594Z,8.12
2018-11-13T02:40:16.923Z,8.13
2018-11-13T02:41:16.927Z,8.08
2018-11-13T02:42:16.260Z,8.08
2018-11-13T02:43:16.570Z,8.08
2018-11-13T02:44:16.866Z,8.08
2018-11-13T02:45:17.213Z,8.20
2018-11-13T02:46:16.547Z,8.17
2018-11-13T02:47:16.902Z,8.10
2018-11-13T02:48:17.226Z,8.10
2018-11-13T02:49:16.524Z,8.08
2018-11-13T02:50:16.832Z,8.06
2018-11-13T02:51:16.901Z,8.03
2018-11-13T02:52:17.217Z,8.06
2018-11-13T02:53:16.515Z,8.05
2018-11-13T02:54:16.817Z,8.02
2018-11-13T02:55:17.155Z,8.02
2018-11-13T02:56:16.475Z,7.99
2018-11-13T02:57:16.760Z,7.99
2018-11-13T02:58:17.066Z,7.98
2018-11-13T02:59:16.379Z,7.96
2018-11-13T03:00:16.739Z,7.96
2018-11-13T03:01:16.772Z,7.98
2018-11-13T03:02:17.085Z,7.96
2018-11-13T03:03:16.427Z,7.96
2018-11-13T03:04:16.780Z,7.95
2018-11-13T03:05:17.072Z,7.93
2018-11-13T03:06:16.380Z,7.95
2018-11-13T03:07:16.703Z,7.96
2018-11-13T03:08:17.008Z,7.95
2018-11-13T03:09:16.340Z,7.95
2018-11-13T03:10:16.677Z,7.98
2018-11-13T03:11:16.709Z,7.95
2018-11-13T03:12:17.030Z,7.95
2018-11-13T03:13:16.330Z,7.95
2018-11-13T03:14:16.669Z,7.98
2018-11-13T03:15:16.956Z,7.96
2018-11-13T03:16:16.285Z,7.95
2018-11-13T03:17:16.586Z,7.95
2018-11-13T03:18:16.920Z,7.95
2018-11-13T03:19:16.243Z,7.95
2018-11-13T03:20:16.600Z,7.95
2018-11-13T03:21:16.629Z,7.93
2018-11-13T03:22:16.914Z,7.91
2018-11-13T03:23:16.229Z,7.91
2018-11-13T03:24:16.539Z,7.91
2018-11-13T03:25:16.869Z,7.88
2018-11-13T03:26:17.158Z,7.86
2018-11-13T03:27:16.335Z,7.86
2018-11-13T03:28:16.663Z,7.85
2018-11-13T03:29:16.969Z,7.86
2018-11-13T03:30:16.285Z,7.84
2018-11-13T03:31:16.384Z,7.82
2018-11-13T03:32:16.972Z,7.86
2018-11-13T03:33:16.265Z,7.82
2018-11-13T03:34:16.570Z,7.82
2018-11-13T03:35:16.887Z,7.85
2018-11-13T03:36:16.244Z,7.85
2018-11-13T03:37:16.543Z,7.85
2018-11-13T03:38:16.874Z,7.84
2018-11-13T03:39:17.216Z,7.89
2018-11-13T03:40:16.545Z,7.89
2018-11-13T03:41:16.588Z,7.88
2018-11-13T03:42:16.906Z,7.91
2018-11-13T03:43:17.195Z,7.88
2018-11-13T03:44:16.503Z,7.86
2018-11-13T03:45:16.813Z,7.89
2018-11-13T03:46:17.117Z,7.89
2018-11-13T03:47:16.396Z,7.89
2018-11-13T03:48:16.709Z,7.88
2018-11-13T03:49:16.980Z,7.85
2018-11-13T03:50:16.308Z,7.85
2018-11-13T03:51:16.324Z,7.84
2018-11-13T03:52:16.631Z,7.85
2018-11-13T03:53:16.922Z,7.85
2018-11-13T03:54:16.231Z,7.82
2018-11-13T03:55:16.557Z,7.82
2018-11-13T03:56:16.875Z,7.82
2018-11-13T03:57:17.166Z,7.82
2018-11-13T03:58:16.480Z,7.80
2018-11-13T03:59:16.754Z,7.81
2018-11-13T04:00:17.123Z,7.81
2018-11-13T04:01:17.174Z,7.80
2018-11-13T04:02:16.463Z,7.78
2018-11-13T04:03:16.778Z,7.81
2018-11-13T04:04:17.090Z,7.82
2018-11-13T04:05:16.418Z,7.78
2018-11-13T04:06:16.754Z,7.80
2018-11-13T04:07:17.107Z,7.80
2018-11-13T04:08:16.453Z,7.77
2018-11-13T04:09:16.763Z,7.80
2018-11-13T04:10:17.103Z,7.80
2018-11-13T04:11:17.143Z,7.81
2018-11-13T04:12:16.473Z,7.80
2018-11-13T04:13:16.772Z,7.77
2018-11-13T04:14:17.085Z,7.80
2018-11-13T04:15:16.395Z,7.80
2018-11-13T04:16:16.693Z,7.77
2018-11-13T04:17:17.009Z,7.78
2018-11-13T04:18:16.318Z,7.78
2018-11-13T04:19:16.659Z,7.80
2018-11-13T04:20:16.971Z,7.77
2018-11-13T04:21:17.000Z,7.77
2018-11-13T04:22:16.297Z,7.77
2018-11-13T04:23:16.591Z,7.74
2018-11-13T04:24:16.867Z,7.74
2018-11-13T04:25:17.169Z,7.74
2018-11-13T04:26:16.486Z,7.74
2018-11-13T04:27:16.794Z,7.75
2018-11-13T04:28:17.123Z,7.74
2018-11-13T04:29:16.460Z,7.77
2018-11-13T04:30:16.790Z,7.77
2018-11-13T04:31:16.836Z,7.81
2018-11-13T04:32:17.150Z,7.80
2018-11-13T04:33:16.475Z,7.81
2018-11-13T04:34:16.766Z,7.80
2018-11-13T04:35:17.130Z,7.81
2018-11-13T04:36:16.430Z,7.80
2018-11-13T04:37:16.734Z,7.82
2018-11-13T04:38:17.034Z,7.81
2018-11-13T04:39:16.386Z,7.75
2018-11-13T04:40:16.731Z,7.77
2018-11-13T04:41:16.752Z,7.77
2018-11-13T04:42:17.082Z,7.81
2018-11-13T04:43:16.391Z,7.81
2018-11-13T04:44:16.706Z,7.81
2018-11-13T04:45:17.032Z,7.80
2018-11-13T04:46:16.361Z,7.81
2018-11-13T04:47:16.663Z,7.82
2018-11-13T04:48:16.976Z,7.85
2018-11-13T04:49:16.487Z,7.86
2018-11-13T04:50:16.845Z,7.86
2018-11-13T04:51:16.888Z,7.85
2018-11-13T04:52:17.238Z,7.85
2018-11-13T04:53:16.556Z,7.86
2018-11-13T04:54:17.060Z,7.84
2018-11-13T04:55:16.399Z,7.86
2018-11-13T04:56:16.716Z,7.84
2018-11-13T04:57:17.014Z,7.85
2018-11-13T04:58:16.322Z,7.84
2018-11-13T04:59:16.632Z,7.85
2018-11-13T05:00:16.948Z,7.88
2018-11-13T05:01:16.999Z,7.91
2018-11-13T05:02:16.328Z,7.85
2018-11-13T05:03:16.618Z,7.86
2018-11-13T05:04:16.911Z,7.89
2018-11-13T05:05:17.201Z,7.89
2018-11-13T05:06:16.461Z,7.92
2018-11-13T05:07:16.770Z,7.91
2018-11-13T05:08:17.081Z,7.91
2018-11-13T05:09:16.396Z,7.91
2018-11-13T05:10:16.799Z,7.89
2018-11-13T05:11:16.613Z,7.88
2018-11-13T05:12:16.968Z,7.89
2018-11-13T05:13:16.277Z,7.91
2018-11-13T05:14:16.543Z,7.93
2018-11-13T05:15:16.853Z,7.93
2018-11-13T05:16:17.171Z,7.92
2018-11-13T05:17:16.481Z,7.92
2018-11-13T05:18:16.789Z,7.92
2018-11-13T05:19:17.397Z,7.91
2018-11-13T05:20:16.731Z,7.92
2018-11-13T05:21:16.797Z,7.91
2018-11-13T05:22:17.086Z,7.92
2018-11-13T05:23:16.405Z,7.92
2018-11-13T05:24:16.936Z,7.92
2018-11-13T05:25:16.515Z,7.92
2018-11-13T05:26:16.788Z,7.95
2018-11-13T05:27:17.068Z,7.93
2018-11-13T05:28:16.385Z,7.95
2018-11-13T05:29:16.676Z,7.91
2018-11-13T05:30:17.019Z,7.89
2018-11-13T05:31:17.002Z,7.93
2018-11-13T05:32:16.336Z,7.92
2018-11-13T05:33:16.652Z,7.93
2018-11-13T05:34:16.974Z,7.93
2018-11-13T05:35:16.246Z,7.91
2018-11-13T05:36:16.547Z,7.92
2018-11-13T05:37:16.825Z,7.92
2018-11-13T05:38:17.153Z,7.92
2018-11-13T05:39:16.453Z,7.91
2018-11-13T05:40:16.776Z,7.91
2018-11-13T05:41:16.843Z,7.91
2018-11-13T05:42:17.171Z,7.92
2018-11-13T05:43:16.467Z,7.91
2018-11-13T05:44:16.761Z,7.88
2018-11-13T05:45:17.051Z,7.89
2018-11-13T05:46:16.357Z,7.91
2018-11-13T05:47:16.853Z,7.91
2018-11-13T05:48:16.367Z,7.91
2018-11-13T05:49:16.671Z,7.89
2018-11-13T05:50:16.977Z,7.91
2018-11-13T05:51:17.015Z,7.89
2018-11-13T05:52:16.668Z,7.88
2018-11-13T05:53:16.960Z,7.91
2018-11-13T05:54:16.254Z,7.89
2018-11-13T05:55:16.562Z,7.89
2018-11-13T05:56:16.846Z,7.89
2018-11-13T05:57:17.283Z,7.89
2018-11-13T05:58:16.633Z,7.86
2018-11-13T05:59:16.943Z,7.89
2018-11-13T06:00:16.235Z,7.89
2018-11-13T06:01:16.315Z,7.86
2018-11-13T06:02:16.628Z,7.86
2018-11-13T06:03:16.947Z,7.88
2018-11-13T06:04:16.261Z,7.88
2018-11-13T06:05:16.574Z,7.86
2018-11-13T06:06:16.905Z,7.88
2018-11-13T06:07:17.210Z,7.91
2018-11-13T06:08:16.520Z,7.86
2018-11-13T06:09:16.823Z,7.88
2018-11-13T06:10:17.131Z,7.86
2018-11-13T06:11:17.149Z,7.86
2018-11-13T06:12:16.469Z,7.88
2018-11-13T06:13:16.767Z,7.88
2018-11-13T06:14:17.202Z,7.88
2018-11-13T06:15:16.832Z,7.89
2018-11-13T06:16:17.156Z,7.92
2018-11-13T06:17:16.501Z,7.92
2018-11-13T06:18:16.930Z,7.91
2018-11-13T06:19:16.523Z,7.91
2018-11-13T06:20:16.825Z,7.89
2018-11-13T06:21:16.893Z,7.88
2018-11-13T06:22:17.526Z,7.92
2018-11-13T06:23:16.839Z,7.88
2018-11-13T06:24:17.194Z,7.91
2018-11-13T06:25:16.565Z,7.91
2018-11-13T06:26:16.867Z,7.89
2018-11-13T06:27:17.163Z,7.89
2018-11-13T06:28:16.476Z,7.89
2018-11-13T06:29:16.776Z,7.91
2018-11-13T06:30:17.239Z,7.91
2018-11-13T06:31:17.130Z,7.89
2018-11-13T06:32:16.458Z,7.86
2018-11-13T06:33:16.755Z,7.89
2018-11-13T06:34:17.065Z,7.85
2018-11-13T06:35:16.405Z,7.88
2018-11-13T06:36:16.734Z,7.89
2018-11-13T06:37:17.040Z,7.91
2018-11-13T06:38:16.356Z,7.91
2018-11-13T06:39:16.677Z,7.92
2018-11-13T06:40:17.006Z,7.89
2018-11-13T06:41:17.095Z,7.88
2018-11-13T06:42:16.430Z,7.91
2018-11-13T06:43:16.726Z,7.89
2018-11-13T06:44:17.046Z,7.86
2018-11-13T06:45:16.338Z,7.89
2018-11-13T06:46:16.668Z,7.91
2018-11-13T06:47:17.000Z,7.92
2018-11-13T06:48:16.290Z,7.89
2018-11-13T06:49:16.624Z,7.88
2018-11-13T06:50:16.991Z,7.91
2018-11-13T06:51:17.038Z,7.86
2018-11-13T06:52:16.352Z,7.86
2018-11-13T06:53:16.689Z,7.89
2018-11-13T06:54:17.017Z,7.89
2018-11-13T06:55:16.312Z,7.89
2018-11-13T06:56:16.654Z,7.91
2018-11-13T06:57:16.956Z,7.92
2018-11-13T06:58:16.263Z,7.89
2018-11-13T06:59:16.537Z,7.88
2018-11-13T07:00:16.836Z,7.88
2018-11-13T07:01:16.881Z,7.88
2018-11-13T07:02:17.210Z,7.88
2018-11-13T07:03:16.525Z,7.88
2018-11-13T07:04:16.816Z,7.88
2018-11-13T07:05:17.141Z,7.86
2018-11-13T07:06:16.438Z,7.86
2018-11-13T07:07:16.758Z,7.82
2018-11-13T07:08:17.064Z,7.85
2018-11-13T07:09:16.377Z,7.84
2018-11-13T07:10:16.677Z,7.81
2018-11-13T07:11:16.812Z,7.80
2018-11-13T07:12:16.262Z,7.81
2018-11-13T07:13:16.546Z,7.82
2018-11-13T07:14:16.843Z,7.82
2018-11-13T07:15:17.139Z,7.82
2018-11-13T07:16:16.442Z,7.84
2018-11-13T07:17:16.731Z,7.86
2018-11-13T07:18:17.091Z,7.85
2018-11-13T07:19:16.457Z,7.80
2018-11-13T07:20:16.746Z,7.80
2018-11-13T07:21:16.811Z,7.78
2018-11-13T07:22:17.121Z,7.81
2018-11-13T07:23:16.453Z,7.81
2018-11-13T07:24:16.758Z,7.81
2018-11-13T07:25:17.085Z,7.81
2018-11-13T07:26:16.641Z,7.81
2018-11-13T07:27:17.003Z,7.81
2018-11-13T07:28:16.416Z,7.84
2018-11-13T07:29:16.743Z,7.85
2018-11-13T07:30:17.069Z,7.85
2018-11-13T07:31:17.129Z,7.86
2018-11-13T07:32:16.649Z,7.85
2018-11-13T07:33:16.965Z,7.84
2018-11-13T07:34:16.344Z,7.86
2018-11-13T07:35:16.647Z,7.84
2018-11-13T07:36:16.968Z,7.86
2018-11-13T07:37:16.272Z,7.89
2018-11-13T07:38:16.605Z,7.91
2018-11-13T07:39:16.924Z,7.91
2018-11-13T07:40:16.235Z,7.91
2018-11-13T07:41:16.403Z,7.91
2018-11-13T07:42:16.898Z,7.95
2018-11-13T07:43:17.193Z,7.92
2018-11-13T07:44:16.527Z,7.92
2018-11-13T07:45:16.881Z,7.86
2018-11-13T07:46:17.196Z,7.85
2018-11-13T07:47:16.572Z,7.86
2018-11-13T07:48:16.235Z,7.86
2018-11-13T07:49:16.525Z,7.88
2018-11-13T07:50:16.850Z,7.89
2018-11-13T07:51:16.963Z,7.91
2018-11-13T07:52:16.392Z,7.89
2018-11-13T07:53:16.710Z,7.91
2018-11-13T07:54:17.007Z,7.95
2018-11-13T07:55:16.388Z,7.92
2018-11-13T07:56:16.720Z,7.96
2018-11-13T07:57:17.005Z,7.93
2018-11-13T07:58:16.301Z,7.95
2018-11-13T07:59:16.620Z,7.99
2018-11-13T08:00:17.009Z,7.99
2018-11-13T08:01:17.071Z,7.99
2018-11-13T08:02:16.543Z,8.02
2018-11-13T08:03:16.891Z,8.05
2018-11-13T08:04:17.218Z,8.02
2018-11-13T08:05:16.547Z,7.99
2018-11-13T08:06:16.950Z,8.00
2018-11-13T08:07:16.533Z,7.99
2018-11-13T08:08:17.002Z,8.00
2018-11-13T08:09:16.308Z,8.03
2018-11-13T08:10:16.660Z,7.99
2018-11-13T08:11:16.773Z,8.00
2018-11-13T08:12:17.183Z,8.02
2018-11-13T08:13:16.710Z,8.00
2018-11-13T08:14:16.582Z,8.02
2018-11-13T08:15:16.917Z,8.02
2018-11-13T08:16:17.212Z,8.05
2018-11-13T08:17:16.514Z,8.00
2018-11-13T08:18:16.812Z,8.00
2018-11-13T08:19:17.103Z,8.03
2018-11-13T08:20:16.422Z,8.03
2018-11-13T08:21:16.457Z,7.99
2018-11-13T08:22:16.839Z,8.02
2018-11-13T08:23:16.482Z,8.02
2018-11-13T08:24:16.802Z,8.03
2018-11-13T08:25:17.145Z,8.03
2018-11-13T08:26:16.719Z,8.06
2018-11-13T08:27:17.261Z,8.06
2018-11-13T08:28:16.626Z,8.08
2018-11-13T08:29:17.131Z,8.09
2018-11-13T08:30:16.690Z,8.08
2018-11-13T08:31:16.768Z,8.10
2018-11-13T08:32:17.077Z,8.08
2018-11-13T08:33:16.411Z,8.08
2018-11-13T08:34:16.897Z,8.10
2018-11-13T08:35:17.241Z,8.09
2018-11-13T08:36:16.590Z,8.10
2018-11-13T08:37:16.921Z,8.13
2018-11-13T08:38:16.223Z,8.14
2018-11-13T08:39:16.541Z,8.14
2018-11-13T08:40:16.860Z,8.20
2018-11-13T08:41:16.913Z,8.20
2018-11-13T08:42:16.257Z,8.17
2018-11-13T08:43:16.588Z,8.21
2018-11-13T08:44:16.981Z,8.23
2018-11-13T08:45:16.485Z,8.26
2018-11-13T08:46:16.788Z,8.26
2018-11-13T08:47:17.127Z,8.30
2018-11-13T08:48:16.477Z,8.27
2018-11-13T08:49:16.822Z,8.31
2018-11-13T08:50:17.168Z,8.30
2018-11-13T08:51:17.196Z,8.34
2018-11-13T08:52:16.510Z,8.34
2018-11-13T08:53:16.808Z,8.37
2018-11-13T08:54:17.113Z,8.37
2018-11-13T08:55:16.445Z,8.37
2018-11-13T08:56:16.715Z,8.39
2018-11-13T08:57:17.071Z,8.41
2018-11-13T08:58:16.422Z,8.47
2018-11-13T08:59:16.877Z,8.47
2018-11-13T09:00:16.661Z,8.51
2018-11-13T09:01:16.679Z,8.47
2018-11-13T09:02:16.976Z,8.52
2018-11-13T09:03:16.306Z,8.51
2018-11-13T09:04:16.638Z,8.54
2018-11-13T09:05:17.068Z,8.54
2018-11-13T09:06:16.657Z,8.59
2018-11-13T09:07:16.989Z,8.61
2018-11-13T09:08:16.310Z,8.61
2018-11-13T09:09:16.575Z,8.58
2018-11-13T09:10:16.908Z,8.62
2018-11-13T09:11:17.043Z,8.64
2018-11-13T09:12:16.607Z,8.61
2018-11-13T09:13:17.205Z,8.58
2018-11-13T09:14:16.541Z,8.51
2018-11-13T09:15:16.853Z,8.54
2018-11-13T09:16:17.129Z,8.54
2018-11-13T09:17:16.453Z,8.50
2018-11-13T09:18:16.783Z,8.47
2018-11-13T09:19:17.424Z,8.45
2018-11-13T09:20:17.043Z,8.45
2018-11-13T09:21:17.084Z,8.41
2018-11-13T09:22:16.396Z,8.43
2018-11-13T09:23:16.728Z,8.41
2018-11-13T09:24:17.026Z,8.41
2018-11-13T09:25:16.369Z,8.40
2018-11-13T09:26:16.703Z,8.40
2018-11-13T09:27:17.021Z,8.40
2018-11-13T09:28:16.331Z,8.43
2018-11-13T09:29:16.670Z,8.45
2018-11-13T09:30:17.203Z,8.39
2018-11-13T09:31:17.105Z,8.44
2018-11-13T09:32:16.492Z,8.44
2018-11-13T09:33:16.895Z,8.44
2018-11-13T09:34:17.210Z,8.43
2018-11-13T09:35:16.636Z,8.43
2018-11-13T09:36:17.090Z,8.43
2018-11-13T09:37:16.462Z,8.39
2018-11-13T09:38:16.829Z,8.41
2018-11-13T09:39:17.179Z,8.44
2018-11-13T09:40:16.702Z,8.47
2018-11-13T09:41:16.697Z,8.47
2018-11-13T09:42:17.012Z,8.45
2018-11-13T09:43:16.303Z,8.50
2018-11-13T09:44:16.637Z,8.50
2018-11-13T09:45:16.945Z,8.52
2018-11-13T09:46:16.272Z,8.57
2018-11-13T09:47:16.668Z,8.54
2018-11-13T09:48:16.942Z,8.57
2018-11-13T09:49:16.288Z,8.61
2018-11-13T09:50:16.585Z,8.64
2018-11-13T09:51:16.609Z,8.67
2018-11-13T09:52:16.906Z,8.68
2018-11-13T09:53:16.299Z,8.71
2018-11-13T09:54:16.734Z,8.74
2018-11-13T09:55:17.022Z,8.72
2018-11-13T09:56:16.356Z,8.74
2018-11-13T09:57:16.750Z,8.75
2018-11-13T09:58:17.056Z,8.78
2018-11-13T09:59:16.359Z,8.78
2018-11-13T10:00:16.973Z,8.79
2018-11-13T10:01:17.316Z,8.85
2018-11-13T10:02:17.278Z,8.85
2018-11-13T10:03:17.289Z,8.88
2018-11-13T10:04:16.931Z,8.88
2018-11-13T10:05:17.054Z,8.88
2018-11-13T10:06:16.495Z,8.94
2018-11-13T10:07:16.780Z,8.94
2018-11-13T10:08:17.119Z,8.95
2018-11-13T10:09:16.431Z,8.96
2018-11-13T10:10:16.840Z,8.96
2018-11-13T10:11:16.799Z,8.96
2018-11-13T10:12:17.099Z,8.99
2018-11-13T10:13:16.419Z,9.06
2018-11-13T10:14:16.706Z,9.05
2018-11-13T10:15:17.033Z,9.06
2018-11-13T10:16:16.360Z,9.07
2018-11-13T10:17:16.705Z,9.06
2018-11-13T10:18:17.424Z,9.07
2018-11-13T10:19:17.127Z,9.10
2018-11-13T10:20:16.445Z,9.12
2018-11-13T10:21:16.503Z,9.12
2018-11-13T10:22:16.814Z,9.22
2018-11-13T10:23:17.154Z,9.24
2018-11-13T10:24:16.450Z,9.26
2018-11-13T10:25:16.766Z,9.30
2018-11-13T10:26:17.116Z,9.31
2018-11-13T10:27:16.576Z,9.26
2018-11-13T10:28:16.940Z,9.30
2018-11-13T10:29:16.413Z,9.31
2018-11-13T10:30:16.770Z,9.33
2018-11-13T10:31:16.821Z,9.41
2018-11-13T10:32:17.107Z,9.47
2018-11-13T10:33:16.404Z,9.51
2018-11-13T10:34:16.719Z,9.51
2018-11-13T10:35:17.038Z,9.53
2018-11-13T10:36:16.348Z,9.51
2018-11-13T10:37:16.684Z,9.51
2018-11-13T10:38:17.013Z,9.58
2018-11-13T10:39:16.304Z,9.64
2018-11-13T10:40:16.690Z,9.62
2018-11-13T10:41:16.727Z,9.68
2018-11-13T10:42:17.189Z,9.71
2018-11-13T10:43:16.488Z,9.74
2018-11-13T10:44:16.796Z,9.78
2018-11-13T10:45:17.092Z,9.80
2018-11-13T10:46:16.432Z,9.76
2018-11-13T10:47:16.752Z,9.78
2018-11-13T10:48:17.071Z,9.84
2018-11-13T10:49:16.502Z,9.88
2018-11-13T10:50:17.149Z,9.92
2018-11-13T10:51:17.063Z,9.91
2018-11-13T10:52:16.418Z,9.93
2018-11-13T10:53:16.728Z,10.02
2018-11-13T10:54:17.068Z,10.03
2018-11-13T10:55:16.355Z,10.13
2018-11-13T10:56:16.724Z,10.16
2018-11-13T10:57:17.176Z,10.16
2018-11-13T10:58:16.486Z,10.14
2018-11-13T10:59:16.779Z,10.20
2018-11-13T11:00:17.112Z,10.24
2018-11-13T11:01:17.191Z,10.29
2018-11-13T11:02:16.533Z,10.26
2018-11-13T11:03:17.021Z,10.30
2018-11-13T11:04:16.359Z,10.31
2018-11-13T11:05:16.648Z,10.31
2018-11-13T11:06:16.974Z,10.30
2018-11-13T11:07:16.260Z,10.31
2018-11-13T11:08:16.643Z,10.29
2018-11-13T11:09:16.965Z,10.30
2018-11-13T11:10:16.287Z,10.31
2018-11-13T11:11:16.405Z,10.39
2018-11-13T11:12:16.749Z,10.40
2018-11-13T11:13:17.267Z,10.44
2018-11-13T11:14:17.144Z,10.43
2018-11-13T11:15:16.481Z,10.41
2018-11-13T11:16:16.931Z,10.45
2018-11-13T11:17:17.225Z,10.48
2018-11-13T11:18:16.685Z,10.51
2018-11-13T11:19:17.273Z,10.54
2018-11-13T11:20:16.717Z,10.57
2018-11-13T11:21:16.765Z,10.60
2018-11-13T11:22:17.067Z,10.60
2018-11-13T11:23:16.418Z,10.63
2018-11-13T11:24:16.994Z,10.65
2018-11-13T11:25:16.522Z,10.67
2018-11-13T11:26:17.081Z,10.65
2018-11-13T11:27:16.484Z,10.67
2018-11-13T11:28:16.843Z,10.70
2018-11-13T11:29:16.322Z,10.72
2018-11-13T11:30:16.654Z,10.77
2018-11-13T11:31:16.700Z,10.77
2018-11-13T11:32:17.001Z,10.77
2018-11-13T11:33:16.331Z,10.75
2018-11-13T11:34:16.658Z,10.77
2018-11-13T11:35:16.986Z,10.74
2018-11-13T11:36:16.294Z,10.75
2018-11-13T11:37:16.586Z,10.81
2018-11-13T11:38:16.884Z,10.84
2018-11-13T11:39:17.332Z,10.81
2018-11-13T11:40:16.873Z,10.84
2018-11-13T11:41:16.910Z,10.88
2018-11-13T11:42:16.243Z,10.92
2018-11-13T11:43:16.518Z,10.95
2018-11-13T11:44:16.926Z,10.98
2018-11-13T11:45:16.379Z,11.02
2018-11-13T11:46:16.693Z,11.07
2018-11-13T11:47:17.004Z,11.09
2018-11-13T11:48:16.288Z,11.12
2018-11-13T11:49:16.573Z,11.16
2018-11-13T11:50:16.895Z,11.23
2018-11-13T11:51:16.943Z,11.27
2018-11-13T11:52:16.262Z,11.50
2018-11-13T11:53:16.571Z,11.57
2018-11-13T11:54:16.897Z,11.83
2018-11-13T11:55:17.234Z,11.83
2018-11-13T11:56:16.555Z,11.89
2018-11-13T11:57:16.885Z,11.96
2018-11-13T11:58:17.202Z,11.96
2018-11-13T11:59:16.520Z,12.00
2018-11-13T12:00:16.882Z,12.10
2018-11-13T12:01:16.930Z,12.17
2018-11-13T12:02:16.267Z,12.20
2018-11-13T12:03:16.723Z,12.22
2018-11-13T12:04:17.045Z,12.26
2018-11-13T12:05:16.338Z,12.30
2018-11-13T12:06:16.646Z,12.30
2018-11-13T12:07:16.948Z,12.25
2018-11-13T12:08:16.279Z,12.26
2018-11-13T12:09:16.585Z,12.23
2018-11-13T12:10:16.902Z,12.28
2018-11-13T12:11:16.936Z,12.29
2018-11-13T12:12:16.325Z,12.26
2018-11-13T12:13:16.853Z,12.19
2018-11-13T12:14:17.189Z,12.15
2018-11-13T12:15:16.518Z,12.13
2018-11-13T12:16:16.871Z,12.09
2018-11-13T12:17:17.212Z,12.06
2018-11-13T12:18:16.544Z,12.08
2018-11-13T12:19:16.940Z,12.05
2018-11-13T12:20:16.318Z,12.01
2018-11-13T12:21:16.394Z,11.96
2018-11-13T12:22:16.689Z,11.92
2018-11-13T12:23:17.035Z,11.89
2018-11-13T12:24:16.349Z,11.89
2018-11-13T12:25:16.643Z,11.82
2018-11-13T12:26:16.951Z,11.78
2018-11-13T12:27:16.267Z,11.72
2018-11-13T12:28:16.575Z,11.78
2018-11-13T12:29:16.886Z,11.72
2018-11-13T12:30:17.202Z,11.65
2018-11-13T12:31:16.274Z,11.64
2018-11-13T12:32:16.579Z,11.65
2018-11-13T12:33:16.883Z,11.63
2018-11-13T12:34:17.215Z,11.67
2018-11-13T12:35:16.534Z,11.74
2018-11-13T12:36:16.844Z,11.68
2018-11-13T12:37:17.155Z,11.71
2018-11-13T12:38:16.470Z,11.70
2018-11-13T12:39:16.818Z,11.72
2018-11-13T12:40:17.155Z,11.76
2018-11-13T12:41:17.189Z,11.77
2018-11-13T12:42:16.497Z,11.81
2018-11-13T12:43:16.810Z,11.85
2018-11-13T12:44:17.118Z,11.85
2018-11-13T12:45:16.442Z,11.89
2018-11-13T12:46:16.724Z,11.86
2018-11-13T12:47:17.053Z,11.89
2018-11-13T12:48:16.362Z,11.89
2018-11-13T12:49:16.715Z,11.89
2018-11-13T12:50:17.173Z,11.91
2018-11-13T12:51:16.232Z,11.92
2018-11-13T12:52:16.576Z,11.91
2018-11-13T12:53:16.878Z,11.95
2018-11-13T12:54:17.172Z,11.93
2018-11-13T12:55:16.494Z,11.92
2018-11-13T12:56:16.857Z,11.89
2018-11-13T12:57:16.224Z,11.88
2018-11-13T12:58:16.544Z,11.86
2018-11-13T12:59:16.856Z,11.89
2018-11-13T13:00:17.188Z,11.89
2018-11-13T13:01:16.242Z,11.92
2018-11-13T13:02:16.634Z,11.98
2018-11-13T13:03:17.169Z,11.98
2018-11-13T13:04:16.487Z,11.99
2018-11-13T13:05:16.821Z,11.98
2018-11-13T13:06:17.125Z,11.99
2018-11-13T13:07:16.402Z,11.98
2018-11-13T13:08:16.719Z,11.93
2018-11-13T13:09:17.025Z,11.98
2018-11-13T13:10:16.334Z,11.99
2018-11-13T13:11:16.396Z,11.96
2018-11-13T13:12:16.695Z,11.92
2018-11-13T13:13:16.985Z,11.93